createdAt,value
2019-04-27T00:06:13.563Z,3.30
2019-04-27T00:16:36.280Z,3.57
2019-04-27T00:26:43.347Z,3.37
2019-04-27T00:37:09.192Z,4.47
2019-04-27T00:47:14.936Z,4.37
2019-04-27T00:57:22.882Z,4.80
2019-04-27T01:07:29.609Z,5.30
2019-04-27T01:17:35.211Z,5.40
2019-04-27T01:27:45.399Z,7.23
2019-04-27T01:37:50.937Z,8.70
2019-04-27T01:47:56.153Z,8.57
2019-04-27T01:58:01.112Z,9.43
2019-04-27T02:08:09.413Z,11.63
2019-04-27T02:18:14.693Z,12.53
2019-04-27T02:28:33.785Z,12.80
2019-04-27T02:38:40.702Z,12.87
2019-04-27T02:48:56.670Z,14.47
2019-04-27T02:58:53.882Z,13.60
2019-04-27T03:09:00.484Z,13.73
2019-04-27T03:19:18.062Z,14.63
2019-04-27T03:29:23.018Z,13.83
2019-04-27T03:39:30.365Z,14.83
2019-04-27T03:49:37.812Z,13.97
2019-04-27T04:00:00.958Z,14.53
2019-04-27T04:10:06.866Z,14.57
2019-04-27T04:20:13.561Z,14.97
2019-04-27T04:30:19.975Z,14.90
2019-04-27T04:40:30.635Z,14.10
2019-04-27T04:50:36.856Z,14.87
2019-04-27T05:00:43.493Z,12.57
2019-04-27T05:10:49.665Z,8.77
2019-04-27T05:20:58.601Z,7.80
2019-04-27T05:31:04.532Z,7.47
2019-04-27T05:41:10.131Z,6.57
2019-04-27T05:51:21.339Z,6.60
2019-04-27T06:01:26.893Z,7.27
2019-04-27T06:11:32.073Z,6.87
2019-04-27T06:21:36.981Z,6.33
2019-04-27T06:31:42.013Z,6.17
2019-04-27T06:41:49.010Z,6.50
2019-04-27T06:51:54.683Z,6.87
2019-04-27T07:02:00.880Z,6.57
2019-04-27T07:12:09.804Z,6.40
2019-04-27T07:22:20.122Z,5.53
2019-04-27T07:32:44.295Z,5.87
2019-04-27T07:42:51.965Z,6.13
2019-04-27T07:52:58.540Z,5.87
2019-04-27T08:03:36.959Z,6.33
2019-04-27T08:13:51.152Z,6.30
2019-04-27T08:23:58.656Z,6.10
2019-04-27T08:34:03.850Z,6.63
2019-04-27T08:44:09.808Z,7.50
2019-04-27T08:54:15.050Z,7.23
2019-04-27T09:04:20.201Z,7.20
2019-04-27T09:14:36.150Z,6.97
2019-04-27T09:24:41.193Z,6.73
2019-04-27T09:34:46.685Z,7.73
2019-04-27T09:44:52.130Z,7.13
2019-04-27T09:54:57.216Z,8.27
2019-04-27T10:05:02.255Z,13.10
2019-04-27T10:15:08.254Z,11.03
2019-04-27T10:25:26.889Z,9.23
2019-04-27T10:35:31.881Z,9.03
2019-04-27T10:45:37.903Z,9.87
2019-04-27T10:55:43.042Z,10.03
2019-04-27T11:06:01.651Z,10.73
2019-04-27T11:16:08.757Z,12.47
2019-04-27T11:26:15.973Z,8.70
2019-04-27T11:36:25.772Z,7.60
2019-04-27T11:46:31.080Z,11.00
2019-04-27T11:56:36.287Z,9.63
2019-04-27T12:06:41.564Z,13.20
2019-04-27T12:16:49.869Z,10.17
2019-04-27T12:27:15.976Z,7.83
2019-04-27T12:37:21.265Z,23.47
2019-04-27T12:47:26.379Z,6.03
2019-04-27T12:57:45.695Z,6.70
2019-04-27T13:07:51.729Z,7.60
2019-04-27T13:18:05.608Z,7.83
2019-04-27T13:28:12.145Z,8.50
2019-04-27T13:38:19.493Z,7.77
2019-04-27T13:48:29.565Z,10.93
2019-04-27T13:58:35.959Z,10.50
2019-04-27T14:08:44.451Z,11.80
2019-04-27T14:18:53.050Z,14.53
2019-04-27T14:29:00.110Z,15.23
2019-04-27T14:39:08.857Z,17.10
2019-04-27T14:49:15.813Z,18.07
2019-04-27T14:59:20.978Z,18.90
2019-04-27T15:09:26.773Z,19.17
2019-04-27T15:19:34.794Z,19.83
2019-04-27T15:29:40.580Z,18.33
2019-04-27T15:39:58.269Z,20.07
2019-04-27T15:50:04.172Z,20.13
2019-04-27T16:00:17.572Z,45.40
2019-04-27T16:10:20.157Z,25.20
2019-04-27T16:20:34.860Z,28.33
2019-04-27T16:30:45.608Z,31.43
2019-04-27T16:40:54.771Z,23.53
2019-04-27T16:50:59.362Z,23.83
2019-04-27T17:01:12.212Z,24.80
2019-04-27T17:11:19.605Z,27.80
2019-04-27T17:21:28.806Z,31.73
2019-04-27T17:31:38.143Z,29.23
2019-04-27T17:41:49.130Z,34.00
2019-04-27T17:51:51.046Z,37.17
2019-04-27T18:02:00.802Z,37.33
2019-04-27T18:12:08.112Z,39.87
2019-04-27T18:22:11.891Z,40.97
2019-04-27T18:32:17.336Z,43.90
2019-04-27T18:42:27.203Z,41.87
2019-04-27T18:52:49.951Z,41.27
2019-04-27T19:02:56.096Z,34.40
2019-04-27T19:13:02.127Z,40.70
2019-04-27T19:23:08.800Z,43.07
2019-04-27T19:33:14.339Z,40.80
2019-04-27T19:43:19.376Z,43.83
2019-04-27T19:53:24.651Z,39.63
2019-04-27T20:03:33.437Z,38.17
2019-04-27T20:24:43.993Z,34.73
2019-04-27T20:34:52.949Z,31.23
2019-04-27T20:44:58.513Z,31.63
2019-04-27T20:55:08.199Z,32.63
2019-04-27T21:05:37.409Z,30.10
2019-04-27T21:15:43.139Z,27.23
2019-04-27T21:25:51.133Z,30.37
2019-04-27T21:35:56.019Z,28.67
2019-04-27T21:46:01.669Z,28.33
2019-04-27T21:56:11.047Z,29.73
2019-04-27T22:06:16.455Z,29.87
2019-04-27T22:16:22.257Z,25.63
2019-04-27T22:26:27.923Z,27.80
2019-04-27T22:36:33.491Z,26.90
2019-04-27T22:46:41.060Z,21.93
2019-04-27T22:56:48.409Z,24.67
2019-04-27T23:06:54.335Z,23.93
2019-04-27T23:17:17.823Z,27.33
2019-04-27T23:27:34.187Z,25.40
2019-04-27T23:37:39.811Z,26.00
2019-04-27T23:47:45.363Z,27.57
2019-04-27T23:57:51.000Z,24.37
